createdAt,value
2017-12-23T00:02:26.806Z,102646
2017-12-23T00:04:56.715Z,102639
2017-12-23T00:07:26.764Z,102635
2017-12-23T00:09:55.895Z,102630
2017-12-23T00:12:25.038Z,102617
2017-12-23T00:14:54.210Z,102620
2017-12-23T00:17:23.298Z,102616
2017-12-23T00:19:52.406Z,102622
2017-12-23T00:22:21.678Z,102621
2017-12-23T00:24:50.797Z,102614
2017-12-23T00:27:20.731Z,102606
2017-12-23T00:29:51.028Z,102600
2017-12-23T00:32:20.178Z,102604
2017-12-23T00:34:50.065Z,102603
2017-12-23T00:37:20.374Z,102600
2017-12-23T00:39:50.314Z,102593
2017-12-23T00:42:19.439Z,102591
2017-12-23T00:44:48.599Z,102585
2017-12-23T00:47:18.527Z,102581
2017-12-23T00:49:48.420Z,102583
2017-12-23T00:52:18.362Z,102583
2017-12-23T00:54:47.504Z,102583
2017-12-23T00:57:16.657Z,102566
2017-12-23T00:59:45.847Z,102545
2017-12-23T01:02:15.036Z,102543
2017-12-23T01:04:44.569Z,102529
2017-12-23T01:07:13.953Z,102523
2017-12-23T01:09:43.185Z,102533
2017-12-23T01:12:12.380Z,102530
2017-12-23T01:14:43.505Z,102538
2017-12-23T01:17:13.746Z,102528
2017-12-23T01:19:42.930Z,102528
2017-12-23T01:22:12.153Z,102520
2017-12-23T01:24:41.289Z,102524
2017-12-23T01:27:10.439Z,102525
2017-12-23T01:29:39.607Z,102515
2017-12-23T01:32:08.722Z,102517
2017-12-23T01:34:37.845Z,102506
2017-12-23T01:37:09.393Z,102519
2017-12-23T01:39:38.636Z,102520
2017-12-23T01:42:08.542Z,102516
2017-12-23T01:44:38.458Z,102504
2017-12-23T01:47:09.192Z,102499
2017-12-23T01:49:38.338Z,102482
2017-12-23T01:52:09.055Z,102464
2017-12-23T01:54:38.191Z,102465
2017-12-23T01:57:07.302Z,102459
2017-12-23T01:59:37.507Z,102463
2017-12-23T02:02:07.322Z,102460
2017-12-23T02:04:36.438Z,102459
2017-12-23T02:07:05.684Z,102460
2017-12-23T02:09:35.585Z,102463
2017-12-23T02:12:04.726Z,102457
2017-12-23T02:14:35.329Z,102452
2017-12-23T02:17:04.502Z,102435
2017-12-23T02:19:33.676Z,102447
2017-12-23T02:22:03.677Z,102444
2017-12-23T02:24:32.799Z,102456
2017-12-23T02:27:01.912Z,102454
2017-12-23T02:29:31.279Z,102446
2017-12-23T02:32:00.398Z,102449
2017-12-23T02:34:30.392Z,102435
2017-12-23T02:37:01.125Z,102427
2017-12-23T02:39:30.246Z,102429
2017-12-23T02:42:00.151Z,102422
2017-12-23T02:44:29.310Z,102430
2017-12-23T02:46:58.428Z,102430
2017-12-23T02:49:27.538Z,102427
2017-12-23T02:51:57.815Z,102415
2017-12-23T02:54:26.914Z,102399
2017-12-23T02:56:56.015Z,102397
2017-12-23T02:59:25.151Z,102389
2017-12-23T03:01:55.226Z,102385
2017-12-23T03:04:24.351Z,102377
2017-12-23T03:06:54.003Z,102373
2017-12-23T03:09:23.167Z,102365
2017-12-23T03:11:52.263Z,102356
2017-12-23T03:14:21.415Z,102353
2017-12-23T03:16:50.538Z,102330
2017-12-23T03:19:19.659Z,102337
2017-12-23T03:21:48.956Z,102329
2017-12-23T03:24:18.146Z,102316
2017-12-23T03:26:47.301Z,102315
2017-12-23T03:29:17.239Z,102301
2017-12-23T03:31:46.378Z,102300
2017-12-23T03:34:15.531Z,102300
2017-12-23T03:36:45.023Z,102302
2017-12-23T03:39:14.177Z,102301
2017-12-23T03:41:44.128Z,102307
2017-12-23T03:44:13.501Z,102297
2017-12-23T03:46:42.666Z,102291
2017-12-23T03:49:12.040Z,102282
2017-12-23T03:51:41.566Z,102276
2017-12-23T03:54:11.486Z,102267
2017-12-23T03:56:41.412Z,102257
2017-12-23T03:59:11.671Z,102256
2017-12-23T04:01:40.838Z,102250
2017-12-23T04:04:10.859Z,102254
2017-12-23T04:06:40.862Z,102247
2017-12-23T04:09:09.991Z,102236
2017-12-23T04:11:39.119Z,102240
2017-12-23T04:14:08.270Z,102233
2017-12-23T04:16:37.384Z,102239
2017-12-23T04:19:06.512Z,102233
2017-12-23T04:21:35.745Z,102239
2017-12-23T04:24:04.890Z,102226
2017-12-23T04:26:34.087Z,102213
2017-12-23T04:29:03.978Z,102210
2017-12-23T04:31:33.070Z,102202
2017-12-23T04:34:02.188Z,102196
2017-12-23T04:36:31.823Z,102200
2017-12-23T04:39:00.942Z,102186
2017-12-23T04:41:30.097Z,102173
2017-12-23T04:43:59.234Z,102166
2017-12-23T04:46:28.355Z,102162
2017-12-23T04:48:57.471Z,102168
2017-12-23T04:51:26.902Z,102162
2017-12-23T04:53:56.043Z,102161
2017-12-23T04:56:25.173Z,102149
2017-12-23T04:58:54.358Z,102143
2017-12-23T05:01:23.495Z,102143
2017-12-23T05:03:52.767Z,102145
2017-12-23T05:06:22.700Z,102139
2017-12-23T05:08:51.798Z,102139
2017-12-23T05:11:21.713Z,102138
2017-12-23T05:13:50.955Z,102137
2017-12-23T05:16:20.086Z,102132
2017-12-23T05:18:49.196Z,102127
2017-12-23T05:21:18.437Z,102121
2017-12-23T05:23:47.568Z,102122
2017-12-23T05:26:16.662Z,102103
2017-12-23T05:28:45.811Z,102099
2017-12-23T05:31:15.049Z,102108
2017-12-23T05:33:44.271Z,102103
2017-12-23T05:36:15.300Z,102097
2017-12-23T05:38:44.489Z,102092
2017-12-23T05:41:13.692Z,102081
2017-12-23T05:43:44.636Z,102083
2017-12-23T05:46:14.581Z,102064
2017-12-23T05:48:43.826Z,102064
2017-12-23T05:51:13.985Z,102051
2017-12-23T05:53:43.242Z,102040
2017-12-23T05:56:12.403Z,102041
2017-12-23T05:58:42.370Z,102048
2017-12-23T06:01:12.308Z,102053
2017-12-23T06:03:41.555Z,102048
2017-12-23T06:06:11.445Z,102020
2017-12-23T06:08:40.629Z,102021
2017-12-23T06:11:10.627Z,102013
2017-12-23T06:13:40.549Z,102008
2017-12-23T06:16:09.749Z,102020
2017-12-23T06:18:38.924Z,102014
2017-12-23T06:21:08.918Z,102019
2017-12-23T06:23:38.028Z,102026
2017-12-23T06:26:07.145Z,102024
2017-12-23T06:28:36.285Z,102033
2017-12-23T06:31:05.506Z,102031
2017-12-23T06:33:34.618Z,102033
2017-12-23T06:36:03.768Z,102010
2017-12-23T06:38:32.914Z,102005
2017-12-23T06:41:02.850Z,102017
2017-12-23T06:43:32.426Z,102030
2017-12-23T06:46:01.540Z,102028
2017-12-23T06:48:30.644Z,102034
2017-12-23T06:51:00.387Z,102036
2017-12-23T06:53:30.249Z,102028
2017-12-23T06:55:59.334Z,102026
2017-12-23T06:58:29.642Z,102016
2017-12-23T07:00:58.756Z,102016
2017-12-23T07:03:27.875Z,102018
2017-12-23T07:05:57.023Z,102012
2017-12-23T07:08:26.124Z,101993
2017-12-23T07:10:55.228Z,102004
2017-12-23T07:13:25.404Z,102014
2017-12-23T07:15:54.520Z,102007
2017-12-23T07:18:23.639Z,102015
2017-12-23T07:20:52.901Z,102013
2017-12-23T07:23:22.100Z,102017
2017-12-23T07:25:51.205Z,102017
2017-12-23T07:28:20.343Z,102017
2017-12-23T07:30:49.534Z,102018
2017-12-23T07:33:18.704Z,102010
2017-12-23T07:35:47.929Z,102024
2017-12-23T07:38:18.241Z,102007
2017-12-23T07:40:47.397Z,102010
2017-12-23T07:43:17.193Z,102017
2017-12-23T07:45:46.468Z,102021
2017-12-23T07:48:15.630Z,102020
2017-12-23T07:50:45.602Z,102011
2017-12-23T07:53:14.917Z,102004
2017-12-23T07:55:44.073Z,101998
2017-12-23T07:58:14.458Z,101998
2017-12-23T08:00:43.711Z,101996
2017-12-23T08:03:12.880Z,101996
2017-12-23T08:05:42.484Z,101988
2017-12-23T08:08:12.186Z,101990
2017-12-23T08:10:42.157Z,101987
2017-12-23T08:13:12.037Z,101989
2017-12-23T08:15:41.982Z,102005
2017-12-23T08:18:11.255Z,102012
2017-12-23T08:20:40.783Z,101993
2017-12-23T08:23:10.594Z,102005
2017-12-23T08:25:40.662Z,102006
2017-12-23T08:28:10.351Z,102012
2017-12-23T08:30:39.621Z,102014
2017-12-23T08:33:08.739Z,102009
2017-12-23T08:35:38.094Z,102020
2017-12-23T08:38:07.218Z,102015
2017-12-23T08:40:37.150Z,102007
2017-12-23T08:43:06.394Z,102020
2017-12-23T08:45:35.508Z,102006
2017-12-23T08:48:04.660Z,102007
2017-12-23T08:50:35.456Z,102017
2017-12-23T08:53:04.597Z,102014
2017-12-23T08:55:33.755Z,102007
2017-12-23T08:58:03.977Z,101984
2017-12-23T09:00:33.899Z,101978
2017-12-23T09:03:03.046Z,101990
2017-12-23T09:05:32.504Z,101976
2017-12-23T09:08:01.634Z,101991
2017-12-23T09:10:30.741Z,101983
2017-12-23T09:13:00.466Z,101995
2017-12-23T09:15:29.594Z,101974
2017-12-23T09:17:59.508Z,101979
2017-12-23T09:20:29.087Z,101968
2017-12-23T09:22:58.202Z,101972
2017-12-23T09:25:27.331Z,101976
2017-12-23T09:27:57.147Z,101977
2017-12-23T09:30:26.265Z,101993
2017-12-23T09:32:56.363Z,102009
2017-12-23T09:35:25.577Z,101991
2017-12-23T09:37:54.698Z,101986
2017-12-23T09:40:23.827Z,102000
2017-12-23T09:42:53.110Z,102001
2017-12-23T09:45:22.263Z,101995
2017-12-23T09:47:51.394Z,101989
2017-12-23T09:50:20.556Z,101968
2017-12-23T09:52:50.474Z,101960
2017-12-23T09:55:19.681Z,101986
2017-12-23T09:57:49.915Z,101984
2017-12-23T10:00:19.150Z,101974
2017-12-23T10:02:48.379Z,101973
2017-12-23T10:05:17.659Z,101969
2017-12-23T10:07:46.860Z,101961
2017-12-23T10:10:16.032Z,101951
2017-12-23T10:12:45.874Z,101964
2017-12-23T10:15:15.112Z,101944
2017-12-23T10:17:44.356Z,101942
2017-12-23T10:20:14.186Z,101935
2017-12-23T10:22:43.437Z,101919
2017-12-23T10:25:12.640Z,101915
2017-12-23T10:27:42.058Z,101910
2017-12-23T10:30:11.418Z,101910
2017-12-23T10:32:40.577Z,101892
2017-12-23T10:35:10.023Z,101910
2017-12-23T10:37:39.187Z,101910
2017-12-23T10:40:08.371Z,101910
2017-12-23T10:42:37.543Z,101916
2017-12-23T10:45:06.715Z,101912
2017-12-23T10:47:36.605Z,101914
2017-12-23T10:50:05.802Z,101905
2017-12-23T10:52:34.923Z,101878
2017-12-23T10:55:04.083Z,101871
2017-12-23T10:57:34.003Z,101884
2017-12-23T11:00:03.995Z,101867
2017-12-23T11:02:33.213Z,101854
2017-12-23T11:05:02.483Z,101862
2017-12-23T11:07:31.638Z,101864
2017-12-23T11:10:00.820Z,101871
2017-12-23T11:12:30.014Z,101866
2017-12-23T11:14:59.158Z,101863
2017-12-23T11:17:28.295Z,101870
2017-12-23T11:19:58.066Z,101874
2017-12-23T11:22:28.212Z,101878
2017-12-23T11:24:57.391Z,101879
2017-12-23T11:27:26.958Z,101868
2017-12-23T11:29:57.047Z,101860
2017-12-23T11:32:26.259Z,101856
2017-12-23T11:34:56.032Z,101867
2017-12-23T11:37:25.148Z,101861
2017-12-23T11:39:54.276Z,101859
2017-12-23T11:42:24.282Z,101868
2017-12-23T11:44:53.415Z,101866
2017-12-23T11:47:22.547Z,101858
2017-12-23T11:49:51.732Z,101855
2017-12-23T11:52:22.527Z,101840
2017-12-23T11:54:51.665Z,101834
2017-12-23T11:57:21.695Z,101843
2017-12-23T11:59:50.807Z,101849
2017-12-23T12:02:19.979Z,101836
2017-12-23T12:04:49.451Z,101834
2017-12-23T12:07:19.576Z,101824
2017-12-23T12:09:48.932Z,101833
2017-12-23T12:12:18.171Z,101829
2017-12-23T12:14:47.409Z,101813
2017-12-23T12:17:16.544Z,101801
2017-12-23T12:19:46.509Z,101821
2017-12-23T12:22:15.665Z,101828
2017-12-23T12:24:44.882Z,101808
2017-12-23T12:27:14.741Z,101826
2017-12-23T12:29:43.969Z,101787
2017-12-23T12:32:13.121Z,101809
2017-12-23T12:34:42.649Z,101800
2017-12-23T12:37:13.403Z,101785
2017-12-23T12:39:42.626Z,101785
2017-12-23T12:42:12.754Z,101774
2017-12-23T12:44:42.748Z,101776
2017-12-23T12:47:11.892Z,101779
2017-12-23T12:49:41.189Z,101778
2017-12-23T12:52:11.102Z,101767
2017-12-23T12:54:41.423Z,101784
2017-12-23T12:57:10.949Z,101781
2017-12-23T12:59:40.125Z,101774
2017-12-23T13:02:09.240Z,101788
2017-12-23T13:04:38.462Z,101778
2017-12-23T13:07:07.599Z,101773
2017-12-23T13:09:36.730Z,101779
2017-12-23T13:12:05.922Z,101782
2017-12-23T13:14:35.115Z,101782
2017-12-23T13:17:04.698Z,101779
2017-12-23T13:19:34.285Z,101775
2017-12-23T13:22:04.183Z,101764
2017-12-23T13:24:33.321Z,101770
2017-12-23T13:27:03.198Z,101770
2017-12-23T13:29:32.304Z,101754
2017-12-23T13:32:01.413Z,101761
2017-12-23T13:34:31.593Z,101769
2017-12-23T13:37:01.482Z,101762
2017-12-23T13:39:30.618Z,101761
2017-12-23T13:42:01.380Z,101763
2017-12-23T13:44:30.622Z,101756
2017-12-23T13:46:59.893Z,101758
2017-12-23T13:49:29.058Z,101762
2017-12-23T13:51:58.166Z,101756
2017-12-23T13:54:27.304Z,101759
2017-12-23T13:56:57.351Z,101735
2017-12-23T13:59:26.521Z,101741
2017-12-23T14:01:55.693Z,101739
2017-12-23T14:04:24.950Z,101741
2017-12-23T14:06:54.095Z,101726
2017-12-23T14:09:23.234Z,101729
2017-12-23T14:11:52.811Z,101729
2017-12-23T14:14:21.974Z,101723
2017-12-23T14:16:51.097Z,101722
2017-12-23T14:19:20.290Z,101721
2017-12-23T14:21:49.435Z,101709
2017-12-23T14:24:18.672Z,101704
2017-12-23T14:26:47.887Z,101685
2017-12-23T14:29:17.056Z,101705
2017-12-23T14:31:46.198Z,101711
2017-12-23T14:34:15.492Z,101713
2017-12-23T14:36:44.678Z,101717
2017-12-23T14:39:13.908Z,101725
2017-12-23T14:41:43.182Z,101718
2017-12-23T14:44:12.644Z,101714
2017-12-23T14:46:41.923Z,101725
2017-12-23T14:49:11.950Z,101717
2017-12-23T14:51:42.111Z,101725
2017-12-23T14:54:11.630Z,101716
2017-12-23T14:56:41.114Z,101712
2017-12-23T14:59:10.316Z,101695
2017-12-23T15:01:39.460Z,101688
2017-12-23T15:04:08.915Z,101692
2017-12-23T15:06:38.016Z,101686
2017-12-23T15:09:07.154Z,101696
2017-12-23T15:11:37.519Z,101699
2017-12-23T15:14:06.642Z,101699
2017-12-23T15:16:36.062Z,101697
2017-12-23T15:19:06.034Z,101702
2017-12-23T15:21:35.943Z,101700
2017-12-23T15:24:05.575Z,101687
2017-12-23T15:26:35.759Z,101693
2017-12-23T15:29:04.878Z,101689
2017-12-23T15:31:34.016Z,101678
2017-12-23T15:34:03.227Z,101678
2017-12-23T15:36:32.404Z,101692
2017-12-23T15:39:01.540Z,101684
2017-12-23T15:41:31.167Z,101668
2017-12-23T15:44:00.310Z,101672
2017-12-23T15:46:30.253Z,101684
2017-12-23T15:49:00.204Z,101667
2017-12-23T15:51:29.365Z,101671
2017-12-23T15:53:59.292Z,101667
2017-12-23T15:56:29.262Z,101674
2017-12-23T15:58:58.699Z,101679
2017-12-23T16:01:27.884Z,101684
2017-12-23T16:03:57.430Z,101686
2017-12-23T16:06:26.648Z,101679
2017-12-23T16:08:55.879Z,101670
2017-12-23T16:11:25.218Z,101663
2017-12-23T16:13:55.097Z,101660
2017-12-23T16:16:24.295Z,101662
2017-12-23T16:18:54.372Z,101660
2017-12-23T16:21:24.293Z,101657
2017-12-23T16:23:54.266Z,101671
2017-12-23T16:26:23.444Z,101657
2017-12-23T16:28:53.332Z,101666
2017-12-23T16:31:22.526Z,101686
2017-12-23T16:33:51.867Z,101653
2017-12-23T16:36:21.024Z,101658
2017-12-23T16:38:50.174Z,101654
2017-12-23T16:41:19.346Z,101639
2017-12-23T16:43:48.697Z,101653
2017-12-23T16:46:18.700Z,101647
2017-12-23T16:48:47.995Z,101626
2017-12-23T16:51:17.152Z,101637
2017-12-23T16:53:46.395Z,101633
2017-12-23T16:56:16.787Z,101622
2017-12-23T16:58:46.023Z,101627
2017-12-23T17:01:16.058Z,101629
2017-12-23T17:03:46.575Z,101617
2017-12-23T17:06:15.932Z,101601
2017-12-23T17:08:45.118Z,101623
2017-12-23T17:11:15.193Z,101613
2017-12-23T17:13:44.382Z,101604
2017-12-23T17:16:13.714Z,101615
2017-12-23T17:18:42.967Z,101608
2017-12-23T17:21:12.183Z,101611
2017-12-23T17:23:41.494Z,101604
2017-12-23T17:26:12.300Z,101612
2017-12-23T17:28:59.388Z,101619
2017-12-23T17:31:28.838Z,101606
2017-12-23T17:33:58.706Z,101605
2017-12-23T17:36:27.893Z,101602
2017-12-23T17:38:57.566Z,101627
2017-12-23T17:41:26.678Z,101609
2017-12-23T17:43:55.821Z,101607
2017-12-23T17:46:25.951Z,101608
2017-12-23T17:48:55.144Z,101581
2017-12-23T17:51:24.582Z,101590
2017-12-23T17:53:54.543Z,101592
2017-12-23T17:56:24.039Z,101588
2017-12-23T17:58:53.223Z,101576
2017-12-23T18:01:23.356Z,101590
2017-12-23T18:03:54.646Z,101578
2017-12-23T18:06:25.013Z,101593
2017-12-23T18:08:54.454Z,101572
2017-12-23T18:11:23.627Z,101588
2017-12-23T18:13:53.190Z,101576
2017-12-23T18:16:22.356Z,101578
2017-12-23T18:18:51.609Z,101566
2017-12-23T18:21:20.832Z,101554
2017-12-23T18:23:50.079Z,101570
2017-12-23T18:26:19.270Z,101585
2017-12-23T18:28:49.257Z,101569
2017-12-23T18:31:18.442Z,101565
2017-12-23T18:33:47.686Z,101564
2017-12-23T18:36:18.599Z,101583
2017-12-23T18:38:47.865Z,101556
2017-12-23T18:41:17.906Z,101570
2017-12-23T18:43:47.849Z,101563
2017-12-23T18:46:18.075Z,101578
2017-12-23T18:48:47.378Z,101567
2017-12-23T18:51:17.773Z,101572
2017-12-23T18:53:47.714Z,101580
2017-12-23T18:56:16.995Z,101557
2017-12-23T18:58:46.384Z,101563
2017-12-23T19:01:16.326Z,101556
2017-12-23T19:03:45.626Z,101558
2017-12-23T19:06:14.826Z,101583
2017-12-23T19:08:44.795Z,101561
2017-12-23T19:11:14.038Z,101561
2017-12-23T19:13:44.435Z,101550
2017-12-23T19:16:32.444Z,101561
2017-12-23T19:19:02.369Z,101568
2017-12-23T19:21:31.514Z,101572
2017-12-23T19:24:00.700Z,101570
2017-12-23T19:26:30.655Z,101564
2017-12-23T19:28:59.778Z,101558
2017-12-23T19:31:28.890Z,101559
2017-12-23T19:33:58.046Z,101569
2017-12-23T19:36:27.190Z,101558
2017-12-23T19:38:56.316Z,101576
2017-12-23T19:41:26.740Z,101572
2017-12-23T19:43:55.858Z,101564
2017-12-23T19:46:24.966Z,101585
2017-12-23T19:48:54.960Z,101567
2017-12-23T19:51:24.084Z,101570
2017-12-23T19:53:54.026Z,101570
2017-12-23T19:56:24.115Z,101567
2017-12-23T19:58:53.338Z,101587
2017-12-23T20:01:23.266Z,101570
2017-12-23T20:03:52.424Z,101565
2017-12-23T20:06:21.548Z,101547
2017-12-23T20:08:50.669Z,101561
2017-12-23T20:11:20.145Z,101563
2017-12-23T20:13:49.287Z,101546
2017-12-23T20:16:18.413Z,101549
2017-12-23T20:18:47.612Z,101529
2017-12-23T20:21:16.754Z,101537
2017-12-23T20:23:46.000Z,101531
2017-12-23T20:26:15.553Z,101539
2017-12-23T20:28:45.059Z,101558
2017-12-23T20:31:14.381Z,101546
2017-12-23T20:33:43.887Z,101565
2017-12-23T20:36:13.088Z,101582
2017-12-23T20:38:42.385Z,101573
2017-12-23T20:41:11.869Z,101582
2017-12-23T20:43:41.053Z,101578
2017-12-23T20:46:10.471Z,101564
2017-12-23T20:48:40.063Z,101564
2017-12-23T20:51:09.273Z,101574
2017-12-23T20:53:38.387Z,101569
2017-12-23T20:56:09.162Z,101561
2017-12-23T20:58:38.282Z,101549
2017-12-23T21:01:07.419Z,101541
2017-12-23T21:03:37.443Z,101537
2017-12-23T21:06:06.644Z,101549
2017-12-23T21:08:35.738Z,101563
2017-12-23T21:11:07.016Z,101542
2017-12-23T21:13:36.114Z,101543
2017-12-23T21:16:05.293Z,101551
2017-12-23T21:18:34.742Z,101554
2017-12-23T21:21:04.678Z,101530
2017-12-23T21:23:34.680Z,101551
2017-12-23T21:26:05.089Z,101543
2017-12-23T21:28:34.342Z,101528
2017-12-23T21:31:03.489Z,101525
2017-12-23T21:33:34.353Z,101543
2017-12-23T21:36:03.602Z,101540
2017-12-23T21:38:33.562Z,101509
2017-12-23T21:41:04.117Z,101524
2017-12-23T21:43:34.021Z,101508
2017-12-23T21:46:03.172Z,101514
2017-12-23T21:48:32.650Z,101514
2017-12-23T21:51:01.846Z,101514
2017-12-23T21:53:30.996Z,101533
2017-12-23T21:56:01.453Z,101512
2017-12-23T21:58:30.572Z,101513
2017-12-23T22:00:59.712Z,101510
2017-12-23T22:03:29.130Z,101512
2017-12-23T22:05:58.276Z,101507
2017-12-23T22:08:28.178Z,101504
2017-12-23T22:10:57.454Z,101509
2017-12-23T22:13:26.705Z,101504
2017-12-23T22:15:55.797Z,101488
2017-12-23T22:18:24.947Z,101493
2017-12-23T22:20:54.821Z,101474
2017-12-23T22:23:23.918Z,101492
2017-12-23T22:25:53.587Z,101489
2017-12-23T22:28:22.686Z,101494
2017-12-23T22:30:51.830Z,101484
2017-12-23T22:33:21.812Z,101491
2017-12-23T22:35:50.958Z,101490
2017-12-23T22:38:20.891Z,101483
2017-12-23T22:40:50.757Z,101484
2017-12-23T22:43:20.842Z,101486
2017-12-23T22:45:50.760Z,101482
2017-12-23T22:48:20.482Z,101461
2017-12-23T22:50:49.727Z,101462
2017-12-23T22:53:18.922Z,101473
2017-12-23T22:55:50.288Z,101471
2017-12-23T22:58:19.618Z,101481
2017-12-23T23:00:49.711Z,101438
2017-12-23T23:03:19.352Z,101430
2017-12-23T23:05:49.326Z,101425
2017-12-23T23:08:18.562Z,101440
2017-12-23T23:10:49.729Z,101453
2017-12-23T23:13:18.942Z,101455
2017-12-23T23:15:48.896Z,101440
2017-12-23T23:18:18.215Z,101443
2017-12-23T23:20:48.932Z,101423
2017-12-23T23:23:18.181Z,101438
2017-12-23T23:25:47.983Z,101442
2017-12-23T23:28:17.306Z,101437
2017-12-23T23:30:46.447Z,101427
2017-12-23T23:33:15.720Z,101437
2017-12-23T23:35:45.643Z,101439
2017-12-23T23:38:15.617Z,101424
2017-12-23T23:40:45.215Z,101442
2017-12-23T23:43:14.391Z,101437
2017-12-23T23:45:44.371Z,101453
2017-12-23T23:48:13.655Z,101434
2017-12-23T23:50:43.568Z,101437
2017-12-23T23:53:13.503Z,101437
2017-12-23T23:55:43.858Z,101428
2017-12-23T23:58:13.012Z,101445
